sensor_id;sensor_type;location;lat;lon;timestamp;P1;durP1;ratioP1;P2;durP2;ratioP2
4182;SDS011;2105;52.300;9.182;2023-04-01T00:02:24;6.63;;;2.40;;
4182;SDS011;2105;52.300;9.182;2023-04-01T00:04:51;3.50;;;2.27;;
4182;SDS011;2105;52.300;9.182;2023-04-01T00:07:17;3.00;;;2.20;;
4182;SDS011;2105;52.300;9.182;2023-04-01T00:09:44;7.07;;;3.40;;
4182;SDS011;2105;52.300;9.182;2023-04-01T00:12:12;2.33;;;2.13;;
4182;SDS011;2105;52.300;9.182;2023-04-01T00:14:39;2.30;;;2.10;;
4182;SDS011;2105;52.300;9.182;2023-04-01T00:17:06;5.57;;;2.40;;
4182;SDS011;2105;52.300;9.182;2023-04-01T00:19:33;4.60;;;2.40;;
4182;SDS011;2105;52.300;9.182;2023-04-01T00:21:59;3.23;;;2.03;;
4182;SDS011;2105;52.300;9.182;2023-04-01T00:24:26;3.70;;;2.40;;
4182;SDS011;2105;52.300;9.182;2023-04-01T00:26:53;2.37;;;2.10;;
4182;SDS011;2105;52.300;9.182;2023-04-01T00:29:21;5.90;;;2.33;;
4182;SDS011;2105;52.300;9.182;2023-04-01T00:31:54;4.70;;;2.87;;
4182;SDS011;2105;52.300;9.182;2023-04-01T00:34:21;2.57;;;2.37;;
4182;SDS011;2105;52.300;9.182;2023-04-01T00:36:48;6.03;;;2.63;;
4182;SDS011;2105;52.300;9.182;2023-04-01T00:39:15;4.00;;;2.60;;
4182;SDS011;2105;52.300;9.182;2023-04-01T00:41:42;4.20;;;2.40;;
4182;SDS011;2105;52.300;9.182;2023-04-01T00:44:15;4.87;;;2.50;;
4182;SDS011;2105;52.300;9.182;2023-04-01T00:46:45;4.90;;;2.77;;
4182;SDS011;2105;52.300;9.182;2023-04-01T00:49:12;2.67;;;2.47;;
4182;SDS011;2105;52.300;9.182;2023-04-01T00:51:40;2.90;;;2.70;;
4182;SDS011;2105;52.300;9.182;2023-04-01T00:54:07;4.20;;;2.50;;
4182;SDS011;2105;52.300;9.182;2023-04-01T00:56:36;3.53;;;2.83;;
4182;SDS011;2105;52.300;9.182;2023-04-01T00:59:06;5.50;;;3.00;;
4182;SDS011;2105;52.300;9.182;2023-04-01T01:01:36;3.77;;;3.33;;
4182;SDS011;2105;52.300;9.182;2023-04-01T01:04:05;3.80;;;3.20;;
4182;SDS011;2105;52.300;9.182;2023-04-01T01:06:38;5.10;;;3.37;;
4182;SDS011;2105;52.300;9.182;2023-04-01T01:09:15;4.30;;;3.50;;
4182;SDS011;2105;52.300;9.182;2023-04-01T01:11:50;3.87;;;3.67;;
4182;SDS011;2105;52.300;9.182;2023-04-01T01:14:29;5.63;;;3.50;;
4182;SDS011;2105;52.300;9.182;2023-04-01T01:17:05;5.13;;;3.57;;
4182;SDS011;2105;52.300;9.182;2023-04-01T01:19:51;3.90;;;3.60;;
4182;SDS011;2105;52.300;9.182;2023-04-01T01:22:40;3.90;;;3.60;;
4182;SDS011;2105;52.300;9.182;2023-04-01T01:25:29;4.97;;;3.90;;
4182;SDS011;2105;52.300;9.182;2023-04-01T01:28:04;5.10;;;3.60;;
4182;SDS011;2105;52.300;9.182;2023-04-01T01:30:49;4.00;;;3.70;;
4182;SDS011;2105;52.300;9.182;2023-04-01T01:33:29;3.97;;;3.70;;
4182;SDS011;2105;52.300;9.182;2023-04-01T01:36:08;4.20;;;3.83;;
4182;SDS011;2105;52.300;9.182;2023-04-01T01:38:38;4.20;;;3.80;;
4182;SDS011;2105;52.300;9.182;2023-04-01T01:41:06;4.53;;;3.60;;
4182;SDS011;2105;52.300;9.182;2023-04-01T01:43:35;5.30;;;3.63;;
4182;SDS011;2105;52.300;9.182;2023-04-01T01:46:07;4.03;;;3.60;;
4182;SDS011;2105;52.300;9.182;2023-04-01T01:48:37;6.10;;;3.90;;
4182;SDS011;2105;52.300;9.182;2023-04-01T01:51:06;7.23;;;3.67;;
4182;SDS011;2105;52.300;9.182;2023-04-01T01:53:34;6.87;;;3.87;;
4182;SDS011;2105;52.300;9.182;2023-04-01T01:56:01;4.67;;;3.60;;
4182;SDS011;2105;52.300;9.182;2023-04-01T01:58:28;4.00;;;3.70;;
4182;SDS011;2105;52.300;9.182;2023-04-01T02:01:00;4.03;;;3.50;;
4182;SDS011;2105;52.300;9.182;2023-04-01T02:03:29;3.60;;;3.27;;
4182;SDS011;2105;52.300;9.182;2023-04-01T02:05:59;3.00;;;2.80;;
4182;SDS011;2105;52.300;9.182;2023-04-01T02:08:28;4.33;;;2.97;;
4182;SDS011;2105;52.300;9.182;2023-04-01T02:11:02;3.30;;;3.10;;
4182;SDS011;2105;52.300;9.182;2023-04-01T02:13:33;3.40;;;3.20;;
4182;SDS011;2105;52.300;9.182;2023-04-01T02:16:05;3.40;;;3.10;;
4182;SDS011;2105;52.300;9.182;2023-04-01T02:18:36;3.20;;;3.00;;
4182;SDS011;2105;52.300;9.182;2023-04-01T02:21:03;3.10;;;2.90;;
4182;SDS011;2105;52.300;9.182;2023-04-01T02:23:31;3.40;;;3.10;;
4182;SDS011;2105;52.300;9.182;2023-04-01T02:26:02;3.37;;;3.07;;
4182;SDS011;2105;52.300;9.182;2023-04-01T02:28:31;3.03;;;2.83;;
4182;SDS011;2105;52.300;9.182;2023-04-01T02:31:00;3.40;;;3.10;;
4182;SDS011;2105;52.300;9.182;2023-04-01T02:33:28;3.70;;;3.27;;
4182;SDS011;2105;52.300;9.182;2023-04-01T02:35:56;5.63;;;3.37;;
4182;SDS011;2105;52.300;9.182;2023-04-01T02:38:23;3.80;;;3.37;;
4182;SDS011;2105;52.300;9.182;2023-04-01T02:40:51;3.50;;;3.20;;
4182;SDS011;2105;52.300;9.182;2023-04-01T02:43:24;3.57;;;3.27;;
4182;SDS011;2105;52.300;9.182;2023-04-01T02:45:50;3.50;;;3.20;;
4182;SDS011;2105;52.300;9.182;2023-04-01T02:48:17;3.80;;;3.07;;
4182;SDS011;2105;52.300;9.182;2023-04-01T02:50:44;7.70;;;3.30;;
4182;SDS011;2105;52.300;9.182;2023-04-01T02:53:10;3.63;;;3.33;;
4182;SDS011;2105;52.300;9.182;2023-04-01T02:55:37;3.50;;;3.30;;
4182;SDS011;2105;52.300;9.182;2023-04-01T02:58:04;3.50;;;3.20;;
4182;SDS011;2105;52.300;9.182;2023-04-01T03:00:32;5.07;;;3.47;;
4182;SDS011;2105;52.300;9.182;2023-04-01T03:02:59;3.30;;;3.00;;
4182;SDS011;2105;52.300;9.182;2023-04-01T03:05:27;5.00;;;2.90;;
4182;SDS011;2105;52.300;9.182;2023-04-01T03:07:55;4.50;;;3.23;;
4182;SDS011;2105;52.300;9.182;2023-04-01T03:10:21;4.17;;;3.23;;
4182;SDS011;2105;52.300;9.182;2023-04-01T03:12:48;3.40;;;3.10;;
4182;SDS011;2105;52.300;9.182;2023-04-01T03:15:15;3.00;;;2.90;;
4182;SDS011;2105;52.300;9.182;2023-04-01T03:17:43;3.20;;;2.80;;
4182;SDS011;2105;52.300;9.182;2023-04-01T03:20:11;3.20;;;3.00;;
4182;SDS011;2105;52.300;9.182;2023-04-01T03:22:39;3.37;;;3.03;;
4182;SDS011;2105;52.300;9.182;2023-04-01T03:25:06;3.10;;;2.80;;
4182;SDS011;2105;52.300;9.182;2023-04-01T03:27:34;2.90;;;2.70;;
4182;SDS011;2105;52.300;9.182;2023-04-01T03:30:00;3.00;;;2.70;;
4182;SDS011;2105;52.300;9.182;2023-04-01T03:32:27;3.37;;;2.73;;
4182;SDS011;2105;52.300;9.182;2023-04-01T03:34:55;2.83;;;2.60;;
4182;SDS011;2105;52.300;9.182;2023-04-01T03:37:22;3.40;;;2.67;;
4182;SDS011;2105;52.300;9.182;2023-04-01T03:39:49;2.90;;;2.57;;
4182;SDS011;2105;52.300;9.182;2023-04-01T03:42:16;4.77;;;2.60;;
4182;SDS011;2105;52.300;9.182;2023-04-01T03:44:42;2.83;;;2.53;;
4182;SDS011;2105;52.300;9.182;2023-04-01T03:47:09;2.67;;;2.40;;
4182;SDS011;2105;52.300;9.182;2023-04-01T03:49:36;4.10;;;2.37;;
4182;SDS011;2105;52.300;9.182;2023-04-01T03:52:04;2.60;;;2.40;;
4182;SDS011;2105;52.300;9.182;2023-04-01T03:54:35;3.73;;;2.80;;
4182;SDS011;2105;52.300;9.182;2023-04-01T03:57:02;2.50;;;2.30;;
4182;SDS011;2105;52.300;9.182;2023-04-01T03:59:29;2.60;;;2.40;;
4182;SDS011;2105;52.300;9.182;2023-04-01T04:01:55;2.60;;;2.40;;
4182;SDS011;2105;52.300;9.182;2023-04-01T04:04:22;2.87;;;2.63;;
4182;SDS011;2105;52.300;9.182;2023-04-01T04:06:49;2.50;;;2.30;;
4182;SDS011;2105;52.300;9.182;2023-04-01T04:09:17;5.60;;;2.87;;
4182;SDS011;2105;52.300;9.182;2023-04-01T04:11:44;3.50;;;2.60;;
4182;SDS011;2105;52.300;9.182;2023-04-01T04:14:11;4.47;;;2.30;;
4182;SDS011;2105;52.300;9.182;2023-04-01T04:16:38;2.73;;;2.53;;
4182;SDS011;2105;52.300;9.182;2023-04-01T04:19:04;4.80;;;2.60;;
4182;SDS011;2105;52.300;9.182;2023-04-01T04:21:31;2.90;;;2.60;;
4182;SDS011;2105;52.300;9.182;2023-04-01T04:23:58;2.53;;;2.33;;
4182;SDS011;2105;52.300;9.182;2023-04-01T04:26:27;2.40;;;2.30;;
4182;SDS011;2105;52.300;9.182;2023-04-01T04:28:54;3.30;;;2.80;;
4182;SDS011;2105;52.300;9.182;2023-04-01T04:31:22;3.90;;;2.60;;
4182;SDS011;2105;52.300;9.182;2023-04-01T04:33:49;3.13;;;2.53;;
4182;SDS011;2105;52.300;9.182;2023-04-01T04:36:17;2.47;;;2.27;;
4182;SDS011;2105;52.300;9.182;2023-04-01T04:38:44;4.50;;;2.40;;
4182;SDS011;2105;52.300;9.182;2023-04-01T04:41:11;5.57;;;2.40;;
4182;SDS011;2105;52.300;9.182;2023-04-01T04:43:40;5.03;;;2.20;;
4182;SDS011;2105;52.300;9.182;2023-04-01T04:46:07;2.60;;;2.40;;
4182;SDS011;2105;52.300;9.182;2023-04-01T04:48:34;4.80;;;2.60;;
4182;SDS011;2105;52.300;9.182;2023-04-01T04:51:02;4.03;;;2.70;;
4182;SDS011;2105;52.300;9.182;2023-04-01T04:53:29;4.13;;;2.53;;
4182;SDS011;2105;52.300;9.182;2023-04-01T04:55:55;2.63;;;2.43;;
4182;SDS011;2105;52.300;9.182;2023-04-01T04:58:22;4.07;;;3.00;;
4182;SDS011;2105;52.300;9.182;2023-04-01T05:00:50;3.10;;;2.40;;
4182;SDS011;2105;52.300;9.182;2023-04-01T05:03:17;3.43;;;2.70;;
4182;SDS011;2105;52.300;9.182;2023-04-01T05:05:53;2.90;;;2.70;;
4182;SDS011;2105;52.300;9.182;2023-04-01T05:08:20;2.80;;;2.57;;
4182;SDS011;2105;52.300;9.182;2023-04-01T05:10:47;5.03;;;3.00;;
4182;SDS011;2105;52.300;9.182;2023-04-01T05:13:13;4.10;;;2.80;;
4182;SDS011;2105;52.300;9.182;2023-04-01T05:15:40;4.83;;;2.80;;
4182;SDS011;2105;52.300;9.182;2023-04-01T05:18:08;3.10;;;2.80;;
4182;SDS011;2105;52.300;9.182;2023-04-01T05:20:35;3.27;;;2.97;;
4182;SDS011;2105;52.300;9.182;2023-04-01T05:23:02;3.63;;;2.87;;
4182;SDS011;2105;52.300;9.182;2023-04-01T05:25:29;3.93;;;3.40;;
4182;SDS011;2105;52.300;9.182;2023-04-01T05:27:55;4.63;;;3.37;;
4182;SDS011;2105;52.300;9.182;2023-04-01T05:30:22;3.30;;;3.10;;
4182;SDS011;2105;52.300;9.182;2023-04-01T05:32:49;3.50;;;3.30;;
4182;SDS011;2105;52.300;9.182;2023-04-01T05:35:17;3.40;;;3.10;;
4182;SDS011;2105;52.300;9.182;2023-04-01T05:37:43;4.43;;;3.10;;
4182;SDS011;2105;52.300;9.182;2023-04-01T05:40:10;3.90;;;3.33;;
4182;SDS011;2105;52.300;9.182;2023-04-01T05:42:37;3.50;;;3.20;;
4182;SDS011;2105;52.300;9.182;2023-04-01T05:45:04;3.00;;;2.80;;
4182;SDS011;2105;52.300;9.182;2023-04-01T05:47:32;3.30;;;3.10;;
4182;SDS011;2105;52.300;9.182;2023-04-01T05:49:58;3.23;;;3.00;;
4182;SDS011;2105;52.300;9.182;2023-04-01T05:52:27;3.30;;;3.10;;
4182;SDS011;2105;52.300;9.182;2023-04-01T05:54:53;3.30;;;3.00;;
4182;SDS011;2105;52.300;9.182;2023-04-01T05:57:20;6.40;;;3.20;;
4182;SDS011;2105;52.300;9.182;2023-04-01T05:59:47;3.43;;;3.10;;
4182;SDS011;2105;52.300;9.182;2023-04-01T06:02:14;4.70;;;3.20;;
4182;SDS011;2105;52.300;9.182;2023-04-01T06:04:43;5.93;;;3.20;;
4182;SDS011;2105;52.300;9.182;2023-04-01T06:07:11;5.40;;;3.60;;
4182;SDS011;2105;52.300;9.182;2023-04-01T06:09:39;4.03;;;3.50;;
4182;SDS011;2105;52.300;9.182;2023-04-01T06:12:10;3.50;;;3.30;;
4182;SDS011;2105;52.300;9.182;2023-04-01T06:14:57;5.70;;;3.80;;
4182;SDS011;2105;52.300;9.182;2023-04-01T06:17:38;3.80;;;3.50;;
4182;SDS011;2105;52.300;9.182;2023-04-01T06:20:15;10.27;;;3.60;;
4182;SDS011;2105;52.300;9.182;2023-04-01T06:23:02;3.83;;;3.40;;
4182;SDS011;2105;52.300;9.182;2023-04-01T06:25:44;3.40;;;3.10;;
4182;SDS011;2105;52.300;9.182;2023-04-01T06:31:53;3.70;;;3.50;;
4182;SDS011;2105;52.300;9.182;2023-04-01T06:34:37;3.70;;;3.40;;
4182;SDS011;2105;52.300;9.182;2023-04-01T06:37:23;5.13;;;3.97;;
4182;SDS011;2105;52.300;9.182;2023-04-01T06:40:29;4.73;;;3.97;;
4182;SDS011;2105;52.300;9.182;2023-04-01T06:43:11;3.93;;;3.70;;
4182;SDS011;2105;52.300;9.182;2023-04-01T06:45:46;3.90;;;3.60;;
4182;SDS011;2105;52.300;9.182;2023-04-01T06:48:22;4.10;;;3.73;;
4182;SDS011;2105;52.300;9.182;2023-04-01T06:51:01;4.30;;;3.77;;
4182;SDS011;2105;52.300;9.182;2023-04-01T06:53:38;7.43;;;3.50;;
4182;SDS011;2105;52.300;9.182;2023-04-01T06:56:13;4.03;;;3.73;;
4182;SDS011;2105;52.300;9.182;2023-04-01T06:58:46;3.90;;;3.60;;
4182;SDS011;2105;52.300;9.182;2023-04-01T07:01:16;3.73;;;3.53;;
4182;SDS011;2105;52.300;9.182;2023-04-01T07:03:47;3.73;;;3.53;;
4182;SDS011;2105;52.300;9.182;2023-04-01T07:06:20;3.50;;;3.30;;
4182;SDS011;2105;52.300;9.182;2023-04-01T07:08:52;3.90;;;3.50;;
4182;SDS011;2105;52.300;9.182;2023-04-01T07:11:22;3.57;;;3.27;;
4182;SDS011;2105;52.300;9.182;2023-04-01T07:13:54;4.73;;;3.20;;
4182;SDS011;2105;52.300;9.182;2023-04-01T07:16:25;3.60;;;3.30;;
4182;SDS011;2105;52.300;9.182;2023-04-01T07:18:56;3.17;;;2.97;;
4182;SDS011;2105;52.300;9.182;2023-04-01T07:21:28;3.20;;;3.00;;
4182;SDS011;2105;52.300;9.182;2023-04-01T07:24:01;4.30;;;3.10;;
4182;SDS011;2105;52.300;9.182;2023-04-01T07:26:31;3.50;;;3.20;;
4182;SDS011;2105;52.300;9.182;2023-04-01T07:28:59;3.60;;;3.30;;
4182;SDS011;2105;52.300;9.182;2023-04-01T07:31:30;3.10;;;2.80;;
4182;SDS011;2105;52.300;9.182;2023-04-01T07:34:09;3.00;;;2.70;;
4182;SDS011;2105;52.300;9.182;2023-04-01T07:36:43;3.03;;;2.83;;
4182;SDS011;2105;52.300;9.182;2023-04-01T07:39:17;3.00;;;2.80;;
4182;SDS011;2105;52.300;9.182;2023-04-01T07:41:57;3.30;;;3.00;;
4182;SDS011;2105;52.300;9.182;2023-04-01T07:44:34;4.03;;;3.13;;
4182;SDS011;2105;52.300;9.182;2023-04-01T07:47:13;4.40;;;3.40;;
4182;SDS011;2105;52.300;9.182;2023-04-01T07:49:55;3.30;;;3.00;;
4182;SDS011;2105;52.300;9.182;2023-04-01T07:52:31;3.60;;;3.30;;
4182;SDS011;2105;52.300;9.182;2023-04-01T07:55:05;3.47;;;3.17;;
4182;SDS011;2105;52.300;9.182;2023-04-01T07:57:38;6.00;;;3.07;;
4182;SDS011;2105;52.300;9.182;2023-04-01T08:00:13;3.10;;;2.90;;
4182;SDS011;2105;52.300;9.182;2023-04-01T08:02:49;3.27;;;3.07;;
4182;SDS011;2105;52.300;9.182;2023-04-01T08:05:34;4.33;;;2.80;;
4182;SDS011;2105;52.300;9.182;2023-04-01T08:08:09;3.17;;;2.83;;
4182;SDS011;2105;52.300;9.182;2023-04-01T08:10:45;3.17;;;2.97;;
4182;SDS011;2105;52.300;9.182;2023-04-01T08:13:17;5.77;;;3.40;;
4182;SDS011;2105;52.300;9.182;2023-04-01T08:15:55;8.90;;;3.40;;
4182;SDS011;2105;52.300;9.182;2023-04-01T08:18:31;3.90;;;3.70;;
4182;SDS011;2105;52.300;9.182;2023-04-01T08:21:05;3.67;;;3.33;;
4182;SDS011;2105;52.300;9.182;2023-04-01T08:23:36;3.80;;;3.50;;
4182;SDS011;2105;52.300;9.182;2023-04-01T08:26:10;3.50;;;3.30;;
4182;SDS011;2105;52.300;9.182;2023-04-01T08:28:43;4.07;;;3.67;;
4182;SDS011;2105;52.300;9.182;2023-04-01T08:31:18;3.90;;;3.60;;
4182;SDS011;2105;52.300;9.182;2023-04-01T08:33:53;4.30;;;4.03;;
4182;SDS011;2105;52.300;9.182;2023-04-01T08:36:21;4.40;;;4.10;;
4182;SDS011;2105;52.300;9.182;2023-04-01T08:38:54;4.70;;;4.40;;
4182;SDS011;2105;52.300;9.182;2023-04-01T08:41:37;5.23;;;4.90;;
4182;SDS011;2105;52.300;9.182;2023-04-01T08:44:28;4.80;;;4.60;;
4182;SDS011;2105;52.300;9.182;2023-04-01T08:47:12;5.00;;;4.70;;
4182;SDS011;2105;52.300;9.182;2023-04-01T08:49:58;4.97;;;4.70;;
4182;SDS011;2105;52.300;9.182;2023-04-01T08:52:44;4.87;;;4.60;;
4182;SDS011;2105;52.300;9.182;2023-04-01T08:55:22;5.00;;;4.73;;
4182;SDS011;2105;52.300;9.182;2023-04-01T08:58:16;4.83;;;4.53;;
4182;SDS011;2105;52.300;9.182;2023-04-01T09:00:51;5.10;;;4.80;;
4182;SDS011;2105;52.300;9.182;2023-04-01T09:03:27;5.03;;;4.73;;
4182;SDS011;2105;52.300;9.182;2023-04-01T09:06:23;5.33;;;5.03;;
4182;SDS011;2105;52.300;9.182;2023-04-01T09:14:59;5.50;;;4.90;;
4182;SDS011;2105;52.300;9.182;2023-04-01T09:17:44;5.67;;;5.27;;
4182;SDS011;2105;52.300;9.182;2023-04-01T09:20:32;4.20;;;3.90;;
4182;SDS011;2105;52.300;9.182;2023-04-01T09:23:17;4.30;;;4.10;;
4182;SDS011;2105;52.300;9.182;2023-04-01T09:26:08;5.33;;;4.87;;
4182;SDS011;2105;52.300;9.182;2023-04-01T09:28:49;4.67;;;4.37;;
4182;SDS011;2105;52.300;9.182;2023-04-01T09:31:32;4.20;;;4.00;;
4182;SDS011;2105;52.300;9.182;2023-04-01T09:34:35;4.80;;;4.50;;
4182;SDS011;2105;52.300;9.182;2023-04-01T09:37:20;4.73;;;4.30;;
4182;SDS011;2105;52.300;9.182;2023-04-01T09:40:01;4.63;;;4.33;;
4182;SDS011;2105;52.300;9.182;2023-04-01T09:42:49;4.80;;;4.40;;
4182;SDS011;2105;52.300;9.182;2023-04-01T09:45:35;4.97;;;4.67;;
4182;SDS011;2105;52.300;9.182;2023-04-01T09:48:12;4.70;;;4.40;;
4182;SDS011;2105;52.300;9.182;2023-04-01T09:50:52;4.90;;;4.60;;
4182;SDS011;2105;52.300;9.182;2023-04-01T09:53:45;4.80;;;4.60;;
4182;SDS011;2105;52.300;9.182;2023-04-01T09:56:27;4.50;;;4.30;;
4182;SDS011;2105;52.300;9.182;2023-04-01T09:59:38;4.73;;;4.43;;
4182;SDS011;2105;52.300;9.182;2023-04-01T10:15:19;6.93;;;4.13;;
4182;SDS011;2105;52.300;9.182;2023-04-01T10:21:16;4.80;;;4.40;;
4182;SDS011;2105;52.300;9.182;2023-04-01T10:24:32;5.10;;;4.60;;
4182;SDS011;2105;52.300;9.182;2023-04-01T10:27:23;5.20;;;5.00;;
4182;SDS011;2105;52.300;9.182;2023-04-01T10:36:13;5.07;;;4.67;;
4182;SDS011;2105;52.300;9.182;2023-04-01T10:39:10;4.87;;;4.40;;
4182;SDS011;2105;52.300;9.182;2023-04-01T10:51:02;3.70;;;3.50;;
4182;SDS011;2105;52.300;9.182;2023-04-01T10:53:40;5.23;;;3.40;;
4182;SDS011;2105;52.300;9.182;2023-04-01T10:56:23;4.30;;;3.17;;
4182;SDS011;2105;52.300;9.182;2023-04-01T11:15:01;4.23;;;4.00;;
4182;SDS011;2105;52.300;9.182;2023-04-01T11:27:09;6.60;;;6.27;;
4182;SDS011;2105;52.300;9.182;2023-04-01T11:29:49;6.23;;;5.70;;
4182;SDS011;2105;52.300;9.182;2023-04-01T11:32:39;6.00;;;5.60;;
4182;SDS011;2105;52.300;9.182;2023-04-01T11:35:19;6.10;;;5.80;;
4182;SDS011;2105;52.300;9.182;2023-04-01T11:38:13;6.40;;;6.10;;
4182;SDS011;2105;52.300;9.182;2023-04-01T11:40:51;7.20;;;6.70;;
4182;SDS011;2105;52.300;9.182;2023-04-01T11:43:27;6.40;;;6.00;;
4182;SDS011;2105;52.300;9.182;2023-04-01T11:46:01;6.40;;;6.10;;
4182;SDS011;2105;52.300;9.182;2023-04-01T11:48:37;6.20;;;5.73;;
4182;SDS011;2105;52.300;9.182;2023-04-01T11:51:19;5.17;;;4.87;;
4182;SDS011;2105;52.300;9.182;2023-04-01T11:53:58;4.30;;;4.00;;
4182;SDS011;2105;52.300;9.182;2023-04-01T11:56:38;4.63;;;3.40;;
4182;SDS011;2105;52.300;9.182;2023-04-01T12:02:07;5.80;;;3.60;;
4182;SDS011;2105;52.300;9.182;2023-04-01T12:04:51;4.13;;;3.80;;
4182;SDS011;2105;52.300;9.182;2023-04-01T12:07:45;3.83;;;3.53;;
4182;SDS011;2105;52.300;9.182;2023-04-01T12:10:21;4.10;;;3.90;;
4182;SDS011;2105;52.300;9.182;2023-04-01T12:12:57;8.90;;;3.90;;
4182;SDS011;2105;52.300;9.182;2023-04-01T12:15:30;4.63;;;4.17;;
4182;SDS011;2105;52.300;9.182;2023-04-01T12:18:14;5.20;;;4.40;;
4182;SDS011;2105;52.300;9.182;2023-04-01T12:20:49;4.80;;;4.50;;
4182;SDS011;2105;52.300;9.182;2023-04-01T12:26:33;5.00;;;4.60;;
4182;SDS011;2105;52.300;9.182;2023-04-01T12:29:21;5.60;;;5.20;;
4182;SDS011;2105;52.300;9.182;2023-04-01T12:32:04;5.73;;;5.13;;
4182;SDS011;2105;52.300;9.182;2023-04-01T12:34:51;6.20;;;5.80;;
4182;SDS011;2105;52.300;9.182;2023-04-01T12:37:39;6.47;;;6.07;;
4182;SDS011;2105;52.300;9.182;2023-04-01T12:40:28;6.43;;;5.77;;
4182;SDS011;2105;52.300;9.182;2023-04-01T12:43:07;6.40;;;5.90;;
4182;SDS011;2105;52.300;9.182;2023-04-01T12:45:49;5.60;;;5.20;;
4182;SDS011;2105;52.300;9.182;2023-04-01T12:48:27;5.20;;;4.90;;
4182;SDS011;2105;52.300;9.182;2023-04-01T12:51:23;6.03;;;4.77;;
4182;SDS011;2105;52.300;9.182;2023-04-01T12:57:14;5.17;;;4.67;;
4182;SDS011;2105;52.300;9.182;2023-04-01T12:59:58;4.83;;;4.53;;
4182;SDS011;2105;52.300;9.182;2023-04-01T13:02:40;7.90;;;4.83;;
4182;SDS011;2105;52.300;9.182;2023-04-01T13:05:22;4.80;;;4.60;;
4182;SDS011;2105;52.300;9.182;2023-04-01T13:08:17;5.23;;;4.93;;
4182;SDS011;2105;52.300;9.182;2023-04-01T13:11:00;5.50;;;5.20;;
4182;SDS011;2105;52.300;9.182;2023-04-01T13:16:30;5.50;;;5.03;;
4182;SDS011;2105;52.300;9.182;2023-04-01T13:19:00;5.20;;;4.90;;
4182;SDS011;2105;52.300;9.182;2023-04-01T13:21:41;5.43;;;5.03;;
4182;SDS011;2105;52.300;9.182;2023-04-01T13:24:24;5.50;;;5.00;;
4182;SDS011;2105;52.300;9.182;2023-04-01T13:26:58;6.80;;;5.10;;
4182;SDS011;2105;52.300;9.182;2023-04-01T13:29:31;5.30;;;5.00;;
4182;SDS011;2105;52.300;9.182;2023-04-01T13:32:04;5.10;;;4.80;;
4182;SDS011;2105;52.300;9.182;2023-04-01T13:34:42;4.90;;;4.60;;
4182;SDS011;2105;52.300;9.182;2023-04-01T13:37:21;5.37;;;4.93;;
4182;SDS011;2105;52.300;9.182;2023-04-01T13:40:26;5.60;;;5.30;;
4182;SDS011;2105;52.300;9.182;2023-04-01T13:43:08;5.70;;;5.40;;
4182;SDS011;2105;52.300;9.182;2023-04-01T13:45:50;5.43;;;5.13;;
4182;SDS011;2105;52.300;9.182;2023-04-01T13:48:45;5.33;;;4.83;;
4182;SDS011;2105;52.300;9.182;2023-04-01T13:51:28;6.63;;;5.00;;
4182;SDS011;2105;52.300;9.182;2023-04-01T13:54:37;5.30;;;4.80;;
4182;SDS011;2105;52.300;9.182;2023-04-01T13:57:26;5.40;;;4.90;;
4182;SDS011;2105;52.300;9.182;2023-04-01T14:00:25;5.57;;;5.17;;
4182;SDS011;2105;52.300;9.182;2023-04-01T14:03:11;5.70;;;5.30;;
4182;SDS011;2105;52.300;9.182;2023-04-01T14:06:02;5.70;;;5.37;;
4182;SDS011;2105;52.300;9.182;2023-04-01T14:08:40;6.73;;;6.00;;
4182;SDS011;2105;52.300;9.182;2023-04-01T14:11:17;6.60;;;6.10;;
4182;SDS011;2105;52.300;9.182;2023-04-01T14:13:56;7.40;;;6.80;;
4182;SDS011;2105;52.300;9.182;2023-04-01T14:16:37;6.80;;;6.40;;
4182;SDS011;2105;52.300;9.182;2023-04-01T14:19:22;7.20;;;6.70;;
4182;SDS011;2105;52.300;9.182;2023-04-01T14:21:58;7.30;;;6.70;;
4182;SDS011;2105;52.300;9.182;2023-04-01T14:24:33;8.70;;;8.10;;
4182;SDS011;2105;52.300;9.182;2023-04-01T14:27:29;7.80;;;7.20;;
4182;SDS011;2105;52.300;9.182;2023-04-01T14:32:58;9.27;;;5.90;;
4182;SDS011;2105;52.300;9.182;2023-04-01T14:35:33;5.93;;;4.50;;
4182;SDS011;2105;52.300;9.182;2023-04-01T14:38:06;5.30;;;4.80;;
4182;SDS011;2105;52.300;9.182;2023-04-01T14:40:55;4.60;;;4.30;;
4182;SDS011;2105;52.300;9.182;2023-04-01T14:43:28;4.03;;;3.70;;
4182;SDS011;2105;52.300;9.182;2023-04-01T14:49:43;6.97;;;6.27;;
4182;SDS011;2105;52.300;9.182;2023-04-01T14:52:13;5.97;;;5.47;;
4182;SDS011;2105;52.300;9.182;2023-04-01T14:54:48;6.30;;;5.70;;
4182;SDS011;2105;52.300;9.182;2023-04-01T14:57:20;6.70;;;6.20;;
4182;SDS011;2105;52.300;9.182;2023-04-01T14:59:51;6.33;;;5.93;;
4182;SDS011;2105;52.300;9.182;2023-04-01T15:05:23;7.53;;;7.00;;
4182;SDS011;2105;52.300;9.182;2023-04-01T15:13:53;6.93;;;6.37;;
4182;SDS011;2105;52.300;9.182;2023-04-01T15:16:30;7.70;;;7.00;;
4182;SDS011;2105;52.300;9.182;2023-04-01T15:19:08;7.53;;;6.93;;
4182;SDS011;2105;52.300;9.182;2023-04-01T15:21:53;7.17;;;6.67;;
4182;SDS011;2105;52.300;9.182;2023-04-01T15:24:35;7.87;;;7.27;;
4182;SDS011;2105;52.300;9.182;2023-04-01T15:27:17;6.97;;;6.43;;
4182;SDS011;2105;52.300;9.182;2023-04-01T15:30:02;7.83;;;7.23;;
4182;SDS011;2105;52.300;9.182;2023-04-01T15:32:46;6.47;;;5.97;;
4182;SDS011;2105;52.300;9.182;2023-04-01T15:35:26;4.77;;;4.40;;
4182;SDS011;2105;52.300;9.182;2023-04-01T15:38:06;4.47;;;4.17;;
4182;SDS011;2105;52.300;9.182;2023-04-01T15:40:43;5.87;;;5.37;;
4182;SDS011;2105;52.300;9.182;2023-04-01T15:43:20;7.40;;;6.70;;
4182;SDS011;2105;52.300;9.182;2023-04-01T15:45:56;7.60;;;6.90;;
4182;SDS011;2105;52.300;9.182;2023-04-01T15:48:40;6.80;;;6.20;;
4182;SDS011;2105;52.300;9.182;2023-04-01T15:51:17;6.53;;;5.70;;
4182;SDS011;2105;52.300;9.182;2023-04-01T15:53:56;6.70;;;6.13;;
4182;SDS011;2105;52.300;9.182;2023-04-01T15:56:45;6.70;;;6.20;;
4182;SDS011;2105;52.300;9.182;2023-04-01T15:59:22;6.80;;;6.20;;
4182;SDS011;2105;52.300;9.182;2023-04-01T16:02:07;7.97;;;7.37;;
4182;SDS011;2105;52.300;9.182;2023-04-01T16:04:47;7.17;;;6.47;;
4182;SDS011;2105;52.300;9.182;2023-04-01T16:10:19;5.53;;;5.03;;
4182;SDS011;2105;52.300;9.182;2023-04-01T16:12:54;5.17;;;4.80;;
4182;SDS011;2105;52.300;9.182;2023-04-01T16:15:32;4.90;;;4.50;;
4182;SDS011;2105;52.300;9.182;2023-04-01T16:18:11;5.37;;;4.97;;
4182;SDS011;2105;52.300;9.182;2023-04-01T16:20:53;5.90;;;5.30;;
4182;SDS011;2105;52.300;9.182;2023-04-01T16:23:26;4.50;;;4.20;;
4182;SDS011;2105;52.300;9.182;2023-04-01T16:26:03;4.40;;;4.10;;
4182;SDS011;2105;52.300;9.182;2023-04-01T16:28:36;4.00;;;3.70;;
4182;SDS011;2105;52.300;9.182;2023-04-01T16:31:09;4.80;;;4.40;;
4182;SDS011;2105;52.300;9.182;2023-04-01T16:33:44;4.50;;;4.20;;
4182;SDS011;2105;52.300;9.182;2023-04-01T16:36:20;4.70;;;4.40;;
4182;SDS011;2105;52.300;9.182;2023-04-01T16:38:53;6.00;;;5.33;;
4182;SDS011;2105;52.300;9.182;2023-04-01T16:41:33;4.83;;;4.53;;
4182;SDS011;2105;52.300;9.182;2023-04-01T16:44:09;3.93;;;3.70;;
4182;SDS011;2105;52.300;9.182;2023-04-01T16:46:43;3.50;;;3.30;;
4182;SDS011;2105;52.300;9.182;2023-04-01T16:49:27;3.70;;;3.40;;
4182;SDS011;2105;52.300;9.182;2023-04-01T16:52:00;4.43;;;4.03;;
4182;SDS011;2105;52.300;9.182;2023-04-01T16:54:40;4.47;;;4.10;;
4182;SDS011;2105;52.300;9.182;2023-04-01T16:57:16;3.80;;;3.60;;
4182;SDS011;2105;52.300;9.182;2023-04-01T16:59:46;3.90;;;3.50;;
4182;SDS011;2105;52.300;9.182;2023-04-01T17:02:20;3.97;;;3.67;;
4182;SDS011;2105;52.300;9.182;2023-04-01T17:04:53;3.80;;;3.60;;
4182;SDS011;2105;52.300;9.182;2023-04-01T17:07:27;5.43;;;4.10;;
4182;SDS011;2105;52.300;9.182;2023-04-01T17:10:21;3.70;;;3.50;;
4182;SDS011;2105;52.300;9.182;2023-04-01T17:15:57;3.87;;;3.57;;
4182;SDS011;2105;52.300;9.182;2023-04-01T17:18:33;4.03;;;3.73;;
4182;SDS011;2105;52.300;9.182;2023-04-01T17:21:06;5.87;;;3.97;;
4182;SDS011;2105;52.300;9.182;2023-04-01T17:23:37;3.93;;;3.67;;
4182;SDS011;2105;52.300;9.182;2023-04-01T17:26:25;3.60;;;3.40;;
4182;SDS011;2105;52.300;9.182;2023-04-01T17:29:01;3.30;;;3.10;;
4182;SDS011;2105;52.300;9.182;2023-04-01T17:31:39;3.10;;;2.90;;
4182;SDS011;2105;52.300;9.182;2023-04-01T17:34:21;2.93;;;2.73;;
4182;SDS011;2105;52.300;9.182;2023-04-01T17:37:12;5.23;;;3.30;;
4182;SDS011;2105;52.300;9.182;2023-04-01T17:39:56;3.37;;;3.17;;
4182;SDS011;2105;52.300;9.182;2023-04-01T17:42:39;4.10;;;3.80;;
4182;SDS011;2105;52.300;9.182;2023-04-01T17:45:16;4.07;;;3.77;;
4182;SDS011;2105;52.300;9.182;2023-04-01T17:47:49;4.27;;;3.97;;